sensor_id;sensor_type;location;lat;lon;timestamp;P1;durP1;ratioP1;P2;durP2;ratioP2
80195;SDS011;69516;42.050;21.516;2023-11-21T00:02:09;23.70;;;13.98;;
80195;SDS011;69516;42.050;21.516;2023-11-21T00:04:36;24.58;;;14.40;;
80195;SDS011;69516;42.050;21.516;2023-11-21T00:07:02;27.88;;;16.55;;
80195;SDS011;69516;42.050;21.516;2023-11-21T00:09:28;24.67;;;15.13;;
80195;SDS011;69516;42.050;21.516;2023-11-21T00:11:55;28.27;;;16.27;;
80195;SDS011;69516;42.050;21.516;2023-11-21T00:14:21;26.90;;;15.93;;
80195;SDS011;69516;42.050;21.516;2023-11-21T00:16:47;30.45;;;16.52;;
80195;SDS011;69516;42.050;21.516;2023-11-21T00:19:13;28.67;;;15.82;;
80195;SDS011;69516;42.050;21.516;2023-11-21T00:21:39;24.33;;;15.05;;
80195;SDS011;69516;42.050;21.516;2023-11-21T00:24:05;32.53;;;15.63;;
80195;SDS011;69516;42.050;21.516;2023-11-21T00:26:32;30.40;;;16.25;;
80195;SDS011;69516;42.050;21.516;2023-11-21T00:29:01;27.60;;;16.05;;
80195;SDS011;69516;42.050;21.516;2023-11-21T00:31:27;26.67;;;15.60;;
80195;SDS011;69516;42.050;21.516;2023-11-21T00:33:56;23.77;;;14.57;;
80195;SDS011;69516;42.050;21.516;2023-11-21T00:36:22;24.70;;;14.27;;
80195;SDS011;69516;42.050;21.516;2023-11-21T00:38:48;29.95;;;15.88;;
80195;SDS011;69516;42.050;21.516;2023-11-21T00:41:14;29.38;;;15.43;;
80195;SDS011;69516;42.050;21.516;2023-11-21T00:43:40;24.33;;;14.77;;
80195;SDS011;69516;42.050;21.516;2023-11-21T00:46:06;23.85;;;14.57;;
80195;SDS011;69516;42.050;21.516;2023-11-21T00:48:33;25.80;;;14.95;;
80195;SDS011;69516;42.050;21.516;2023-11-21T00:50:59;24.00;;;15.02;;
80195;SDS011;69516;42.050;21.516;2023-11-21T00:53:25;24.13;;;15.02;;
80195;SDS011;69516;42.050;21.516;2023-11-21T00:55:52;26.17;;;15.85;;
80195;SDS011;69516;42.050;21.516;2023-11-21T00:58:22;26.90;;;15.32;;
80195;SDS011;69516;42.050;21.516;2023-11-21T01:00:48;29.27;;;17.30;;
80195;SDS011;69516;42.050;21.516;2023-11-21T01:03:14;29.95;;;16.45;;
80195;SDS011;69516;42.050;21.516;2023-11-21T01:05:41;28.73;;;17.10;;
80195;SDS011;69516;42.050;21.516;2023-11-21T01:08:07;26.55;;;16.77;;
80195;SDS011;69516;42.050;21.516;2023-11-21T01:10:33;28.67;;;17.40;;
80195;SDS011;69516;42.050;21.516;2023-11-21T01:12:59;27.90;;;15.80;;
80195;SDS011;69516;42.050;21.516;2023-11-21T01:15:25;29.35;;;16.35;;
80195;SDS011;69516;42.050;21.516;2023-11-21T01:17:52;24.98;;;15.32;;
80195;SDS011;69516;42.050;21.516;2023-11-21T01:20:18;26.42;;;14.73;;
80195;SDS011;69516;42.050;21.516;2023-11-21T01:22:44;26.23;;;15.10;;
80195;SDS011;69516;42.050;21.516;2023-11-21T01:25:10;27.75;;;16.08;;
80195;SDS011;69516;42.050;21.516;2023-11-21T01:27:36;26.73;;;15.48;;
80195;SDS011;69516;42.050;21.516;2023-11-21T01:30:02;26.40;;;15.52;;
80195;SDS011;69516;42.050;21.516;2023-11-21T01:32:29;27.42;;;15.45;;
80195;SDS011;69516;42.050;21.516;2023-11-21T01:34:55;27.25;;;15.68;;
80195;SDS011;69516;42.050;21.516;2023-11-21T01:37:21;27.20;;;16.42;;
80195;SDS011;69516;42.050;21.516;2023-11-21T01:39:48;27.52;;;16.52;;
80195;SDS011;69516;42.050;21.516;2023-11-21T01:42:14;27.05;;;16.35;;
80195;SDS011;69516;42.050;21.516;2023-11-21T01:44:40;33.03;;;19.40;;
80195;SDS011;69516;42.050;21.516;2023-11-21T01:47:06;38.92;;;19.60;;
80195;SDS011;69516;42.050;21.516;2023-11-21T01:49:34;30.70;;;17.63;;
80195;SDS011;69516;42.050;21.516;2023-11-21T01:52:00;30.63;;;17.17;;
80195;SDS011;69516;42.050;21.516;2023-11-21T01:54:27;35.63;;;18.42;;
80195;SDS011;69516;42.050;21.516;2023-11-21T01:56:57;32.45;;;18.48;;
80195;SDS011;69516;42.050;21.516;2023-11-21T01:59:27;26.48;;;15.35;;
80195;SDS011;69516;42.050;21.516;2023-11-21T02:01:56;28.42;;;16.70;;
80195;SDS011;69516;42.050;21.516;2023-11-21T02:04:22;27.92;;;15.73;;
80195;SDS011;69516;42.050;21.516;2023-11-21T02:06:48;26.20;;;15.35;;
80195;SDS011;69516;42.050;21.516;2023-11-21T02:09:16;30.10;;;16.55;;
80195;SDS011;69516;42.050;21.516;2023-11-21T02:11:42;26.77;;;15.88;;
80195;SDS011;69516;42.050;21.516;2023-11-21T02:14:09;24.63;;;15.27;;
80195;SDS011;69516;42.050;21.516;2023-11-21T02:16:36;27.15;;;15.40;;
80195;SDS011;69516;42.050;21.516;2023-11-21T02:19:03;25.90;;;15.55;;
80195;SDS011;69516;42.050;21.516;2023-11-21T02:21:30;29.90;;;16.25;;
80195;SDS011;69516;42.050;21.516;2023-11-21T02:23:56;27.40;;;17.25;;
80195;SDS011;69516;42.050;21.516;2023-11-21T02:26:22;29.33;;;17.67;;
80195;SDS011;69516;42.050;21.516;2023-11-21T02:28:48;27.20;;;16.10;;
80195;SDS011;69516;42.050;21.516;2023-11-21T02:31:14;26.33;;;15.75;;
80195;SDS011;69516;42.050;21.516;2023-11-21T02:33:41;29.08;;;15.52;;
80195;SDS011;69516;42.050;21.516;2023-11-21T02:36:07;26.77;;;16.13;;
80195;SDS011;69516;42.050;21.516;2023-11-21T02:38:34;26.73;;;15.75;;
80195;SDS011;69516;42.050;21.516;2023-11-21T02:41:00;26.52;;;15.05;;
80195;SDS011;69516;42.050;21.516;2023-11-21T02:43:26;26.80;;;16.30;;
80195;SDS011;69516;42.050;21.516;2023-11-21T02:45:52;29.60;;;17.08;;
80195;SDS011;69516;42.050;21.516;2023-11-21T02:48:18;29.08;;;16.90;;
80195;SDS011;69516;42.050;21.516;2023-11-21T02:50:44;25.83;;;16.52;;
80195;SDS011;69516;42.050;21.516;2023-11-21T02:53:10;25.30;;;15.65;;
80195;SDS011;69516;42.050;21.516;2023-11-21T02:55:37;26.60;;;16.05;;
80195;SDS011;69516;42.050;21.516;2023-11-21T02:58:03;30.55;;;16.58;;
80195;SDS011;69516;42.050;21.516;2023-11-21T03:00:31;27.02;;;15.95;;
80195;SDS011;69516;42.050;21.516;2023-11-21T03:02:57;27.27;;;15.55;;
80195;SDS011;69516;42.050;21.516;2023-11-21T03:05:23;23.08;;;14.57;;
80195;SDS011;69516;42.050;21.516;2023-11-21T03:07:49;25.58;;;15.05;;
80195;SDS011;69516;42.050;21.516;2023-11-21T03:10:15;28.38;;;16.30;;
80195;SDS011;69516;42.050;21.516;2023-11-21T03:12:41;27.35;;;16.05;;
80195;SDS011;69516;42.050;21.516;2023-11-21T03:15:09;31.30;;;18.50;;
80195;SDS011;69516;42.050;21.516;2023-11-21T03:17:35;26.40;;;15.57;;
80195;SDS011;69516;42.050;21.516;2023-11-21T03:20:02;28.80;;;16.70;;
80195;SDS011;69516;42.050;21.516;2023-11-21T03:22:29;27.05;;;16.15;;
80195;SDS011;69516;42.050;21.516;2023-11-21T03:24:55;26.67;;;16.80;;
80195;SDS011;69516;42.050;21.516;2023-11-21T03:27:21;30.45;;;16.08;;
80195;SDS011;69516;42.050;21.516;2023-11-21T03:29:47;26.13;;;15.93;;
80195;SDS011;69516;42.050;21.516;2023-11-21T03:32:14;26.88;;;16.63;;
80195;SDS011;69516;42.050;21.516;2023-11-21T03:34:58;24.90;;;15.75;;
80195;SDS011;69516;42.050;21.516;2023-11-21T03:37:25;27.55;;;15.68;;
80195;SDS011;69516;42.050;21.516;2023-11-21T03:39:52;26.58;;;15.05;;
80195;SDS011;69516;42.050;21.516;2023-11-21T03:42:18;25.85;;;14.93;;
80195;SDS011;69516;42.050;21.516;2023-11-21T03:44:44;25.98;;;15.65;;
80195;SDS011;69516;42.050;21.516;2023-11-21T03:47:11;25.40;;;14.45;;
80195;SDS011;69516;42.050;21.516;2023-11-21T03:49:37;24.38;;;14.68;;
80195;SDS011;69516;42.050;21.516;2023-11-21T03:52:03;24.38;;;14.50;;
80195;SDS011;69516;42.050;21.516;2023-11-21T03:54:29;27.63;;;15.05;;
80195;SDS011;69516;42.050;21.516;2023-11-21T03:56:56;24.27;;;13.85;;
80195;SDS011;69516;42.050;21.516;2023-11-21T03:59:22;23.42;;;13.80;;
80195;SDS011;69516;42.050;21.516;2023-11-21T04:01:49;25.02;;;14.52;;
80195;SDS011;69516;42.050;21.516;2023-11-21T04:04:16;33.90;;;15.10;;
80195;SDS011;69516;42.050;21.516;2023-11-21T04:06:42;25.48;;;14.50;;
80195;SDS011;69516;42.050;21.516;2023-11-21T04:09:08;26.30;;;15.70;;
80195;SDS011;69516;42.050;21.516;2023-11-21T04:11:34;27.48;;;14.35;;
80195;SDS011;69516;42.050;21.516;2023-11-21T04:14:00;27.55;;;15.85;;
80195;SDS011;69516;42.050;21.516;2023-11-21T04:16:26;26.02;;;15.15;;
80195;SDS011;69516;42.050;21.516;2023-11-21T04:18:52;30.10;;;16.38;;
80195;SDS011;69516;42.050;21.516;2023-11-21T04:21:18;27.40;;;17.15;;
80195;SDS011;69516;42.050;21.516;2023-11-21T04:23:45;27.83;;;14.82;;
80195;SDS011;69516;42.050;21.516;2023-11-21T04:26:11;28.48;;;15.05;;
80195;SDS011;69516;42.050;21.516;2023-11-21T04:28:37;23.10;;;13.98;;
80195;SDS011;69516;42.050;21.516;2023-11-21T04:31:04;25.20;;;16.48;;
80195;SDS011;69516;42.050;21.516;2023-11-21T04:33:30;26.92;;;16.60;;
80195;SDS011;69516;42.050;21.516;2023-11-21T04:35:56;28.35;;;15.35;;
80195;SDS011;69516;42.050;21.516;2023-11-21T04:38:22;24.95;;;15.65;;
80195;SDS011;69516;42.050;21.516;2023-11-21T04:40:48;28.58;;;16.58;;
80195;SDS011;69516;42.050;21.516;2023-11-21T04:43:14;27.75;;;14.90;;
80195;SDS011;69516;42.050;21.516;2023-11-21T04:45:41;27.42;;;15.63;;
80195;SDS011;69516;42.050;21.516;2023-11-21T04:48:07;25.73;;;14.32;;
80195;SDS011;69516;42.050;21.516;2023-11-21T04:50:34;27.42;;;15.35;;
80195;SDS011;69516;42.050;21.516;2023-11-21T04:53:00;26.75;;;16.23;;
80195;SDS011;69516;42.050;21.516;2023-11-21T04:55:26;27.45;;;16.25;;
80195;SDS011;69516;42.050;21.516;2023-11-21T04:57:53;26.77;;;15.32;;
80195;SDS011;69516;42.050;21.516;2023-11-21T05:00:19;26.02;;;14.82;;
80195;SDS011;69516;42.050;21.516;2023-11-21T05:02:46;34.78;;;17.27;;
80195;SDS011;69516;42.050;21.516;2023-11-21T05:05:12;32.10;;;17.83;;
80195;SDS011;69516;42.050;21.516;2023-11-21T05:07:39;36.67;;;20.15;;
80195;SDS011;69516;42.050;21.516;2023-11-21T05:10:06;28.23;;;17.08;;
80195;SDS011;69516;42.050;21.516;2023-11-21T05:12:36;31.85;;;17.08;;
80195;SDS011;69516;42.050;21.516;2023-11-21T05:15:07;27.00;;;15.43;;
80195;SDS011;69516;42.050;21.516;2023-11-21T05:17:37;31.08;;;16.38;;
80195;SDS011;69516;42.050;21.516;2023-11-21T05:20:07;31.45;;;18.50;;
80195;SDS011;69516;42.050;21.516;2023-11-21T05:22:35;29.98;;;18.92;;
80195;SDS011;69516;42.050;21.516;2023-11-21T05:25:01;30.00;;;17.90;;
80195;SDS011;69516;42.050;21.516;2023-11-21T05:27:28;31.50;;;16.63;;
80195;SDS011;69516;42.050;21.516;2023-11-21T05:29:55;37.83;;;20.80;;
80195;SDS011;69516;42.050;21.516;2023-11-21T05:32:22;37.15;;;20.23;;
80195;SDS011;69516;42.050;21.516;2023-11-21T05:34:48;28.65;;;17.75;;
80195;SDS011;69516;42.050;21.516;2023-11-21T05:37:14;95.95;;;49.67;;
80195;SDS011;69516;42.050;21.516;2023-11-21T05:39:40;44.60;;;24.50;;
80195;SDS011;69516;42.050;21.516;2023-11-21T05:42:07;26.83;;;15.02;;
80195;SDS011;69516;42.050;21.516;2023-11-21T05:44:35;40.75;;;22.33;;
80195;SDS011;69516;42.050;21.516;2023-11-21T05:47:02;43.80;;;23.42;;
80195;SDS011;69516;42.050;21.516;2023-11-21T05:49:28;29.50;;;17.10;;
80195;SDS011;69516;42.050;21.516;2023-11-21T05:51:55;29.00;;;17.02;;
80195;SDS011;69516;42.050;21.516;2023-11-21T05:54:21;31.38;;;17.52;;
80195;SDS011;69516;42.050;21.516;2023-11-21T05:56:49;30.10;;;17.67;;
80195;SDS011;69516;42.050;21.516;2023-11-21T05:59:15;31.55;;;18.20;;
80195;SDS011;69516;42.050;21.516;2023-11-21T06:01:41;32.25;;;19.08;;
80195;SDS011;69516;42.050;21.516;2023-11-21T06:04:07;32.22;;;18.08;;
80195;SDS011;69516;42.050;21.516;2023-11-21T06:06:34;32.83;;;19.17;;
80195;SDS011;69516;42.050;21.516;2023-11-21T06:09:01;33.03;;;19.25;;
80195;SDS011;69516;42.050;21.516;2023-11-21T06:11:27;32.67;;;19.38;;
80195;SDS011;69516;42.050;21.516;2023-11-21T06:13:54;31.17;;;16.48;;
80195;SDS011;69516;42.050;21.516;2023-11-21T06:16:20;27.35;;;16.52;;
80195;SDS011;69516;42.050;21.516;2023-11-21T06:18:46;27.83;;;15.50;;
80195;SDS011;69516;42.050;21.516;2023-11-21T06:21:12;26.40;;;16.80;;
80195;SDS011;69516;42.050;21.516;2023-11-21T06:23:38;30.52;;;15.95;;
80195;SDS011;69516;42.050;21.516;2023-11-21T06:26:05;34.03;;;18.55;;
80195;SDS011;69516;42.050;21.516;2023-11-21T06:28:31;28.17;;;15.68;;
80195;SDS011;69516;42.050;21.516;2023-11-21T06:30:57;28.17;;;15.77;;
80195;SDS011;69516;42.050;21.516;2023-11-21T06:33:29;28.30;;;15.77;;
80195;SDS011;69516;42.050;21.516;2023-11-21T06:35:56;29.77;;;16.10;;
80195;SDS011;69516;42.050;21.516;2023-11-21T06:38:22;24.40;;;15.00;;
80195;SDS011;69516;42.050;21.516;2023-11-21T06:40:48;26.58;;;16.17;;
80195;SDS011;69516;42.050;21.516;2023-11-21T06:43:15;29.65;;;15.70;;
80195;SDS011;69516;42.050;21.516;2023-11-21T06:45:42;29.20;;;16.83;;
80195;SDS011;69516;42.050;21.516;2023-11-21T06:48:09;40.13;;;21.73;;
80195;SDS011;69516;42.050;21.516;2023-11-21T06:50:35;33.47;;;18.45;;
80195;SDS011;69516;42.050;21.516;2023-11-21T06:53:01;41.92;;;21.02;;
80195;SDS011;69516;42.050;21.516;2023-11-21T06:55:29;49.50;;;25.65;;
80195;SDS011;69516;42.050;21.516;2023-11-21T06:57:56;44.72;;;24.05;;
80195;SDS011;69516;42.050;21.516;2023-11-21T07:00:23;35.17;;;20.92;;
80195;SDS011;69516;42.050;21.516;2023-11-21T07:02:49;46.03;;;22.65;;
80195;SDS011;69516;42.050;21.516;2023-11-21T07:05:15;39.80;;;21.58;;
80195;SDS011;69516;42.050;21.516;2023-11-21T07:07:45;32.17;;;19.92;;
80195;SDS011;69516;42.050;21.516;2023-11-21T07:10:13;47.33;;;26.75;;
80195;SDS011;69516;42.050;21.516;2023-11-21T07:12:40;46.03;;;26.00;;
80195;SDS011;69516;42.050;21.516;2023-11-21T07:15:06;44.90;;;25.80;;
80195;SDS011;69516;42.050;21.516;2023-11-21T07:17:37;43.08;;;24.50;;
80195;SDS011;69516;42.050;21.516;2023-11-21T07:20:05;40.72;;;24.38;;
80195;SDS011;69516;42.050;21.516;2023-11-21T07:22:31;42.30;;;24.88;;
80195;SDS011;69516;42.050;21.516;2023-11-21T07:24:58;40.92;;;24.35;;
80195;SDS011;69516;42.050;21.516;2023-11-21T07:27:24;48.33;;;25.70;;
80195;SDS011;69516;42.050;21.516;2023-11-21T07:29:50;41.38;;;24.00;;
80195;SDS011;69516;42.050;21.516;2023-11-21T07:32:16;42.80;;;23.00;;
80195;SDS011;69516;42.050;21.516;2023-11-21T07:34:42;40.58;;;24.30;;
80195;SDS011;69516;42.050;21.516;2023-11-21T07:37:09;41.85;;;23.83;;
80195;SDS011;69516;42.050;21.516;2023-11-21T07:39:35;41.33;;;25.13;;
80195;SDS011;69516;42.050;21.516;2023-11-21T07:42:07;35.80;;;22.13;;
80195;SDS011;69516;42.050;21.516;2023-11-21T07:44:33;38.38;;;21.75;;
80195;SDS011;69516;42.050;21.516;2023-11-21T07:46:59;36.10;;;21.55;;
80195;SDS011;69516;42.050;21.516;2023-11-21T07:49:26;37.05;;;22.17;;
80195;SDS011;69516;42.050;21.516;2023-11-21T07:51:52;34.67;;;20.98;;
80195;SDS011;69516;42.050;21.516;2023-11-21T07:54:18;34.05;;;21.35;;
80195;SDS011;69516;42.050;21.516;2023-11-21T07:56:44;30.63;;;19.60;;
80195;SDS011;69516;42.050;21.516;2023-11-21T07:59:10;33.38;;;20.08;;
80195;SDS011;69516;42.050;21.516;2023-11-21T08:01:37;34.75;;;22.42;;
80195;SDS011;69516;42.050;21.516;2023-11-21T08:04:05;36.45;;;23.27;;
80195;SDS011;69516;42.050;21.516;2023-11-21T08:06:32;28.50;;;18.83;;
80195;SDS011;69516;42.050;21.516;2023-11-21T08:08:58;33.63;;;20.55;;
80195;SDS011;69516;42.050;21.516;2023-11-21T08:11:25;35.33;;;19.85;;
80195;SDS011;69516;42.050;21.516;2023-11-21T08:13:56;38.42;;;21.63;;
80195;SDS011;69516;42.050;21.516;2023-11-21T08:16:24;47.25;;;28.00;;
80195;SDS011;69516;42.050;21.516;2023-11-21T08:18:50;43.92;;;28.40;;
80195;SDS011;69516;42.050;21.516;2023-11-21T08:21:16;46.17;;;29.92;;
80195;SDS011;69516;42.050;21.516;2023-11-21T08:23:42;46.28;;;29.20;;
80195;SDS011;69516;42.050;21.516;2023-11-21T08:26:08;47.45;;;28.25;;
80195;SDS011;69516;42.050;21.516;2023-11-21T08:28:34;47.78;;;28.55;;
80195;SDS011;69516;42.050;21.516;2023-11-21T08:31:01;41.75;;;27.05;;
80195;SDS011;69516;42.050;21.516;2023-11-21T08:33:27;42.53;;;25.77;;
80195;SDS011;69516;42.050;21.516;2023-11-21T08:35:53;34.72;;;21.08;;
80195;SDS011;69516;42.050;21.516;2023-11-21T08:38:20;36.63;;;22.25;;
80195;SDS011;69516;42.050;21.516;2023-11-21T08:40:46;36.22;;;22.13;;
80195;SDS011;69516;42.050;21.516;2023-11-21T08:43:12;34.75;;;20.88;;
80195;SDS011;69516;42.050;21.516;2023-11-21T08:45:39;33.05;;;21.08;;
80195;SDS011;69516;42.050;21.516;2023-11-21T08:48:06;37.17;;;22.27;;
80195;SDS011;69516;42.050;21.516;2023-11-21T08:50:32;35.75;;;21.25;;
80195;SDS011;69516;42.050;21.516;2023-11-21T08:52:59;36.78;;;22.48;;
80195;SDS011;69516;42.050;21.516;2023-11-21T08:55:25;38.70;;;22.90;;
80195;SDS011;69516;42.050;21.516;2023-11-21T08:57:52;43.28;;;26.15;;
80195;SDS011;69516;42.050;21.516;2023-11-21T09:00:18;42.47;;;23.40;;
80195;SDS011;69516;42.050;21.516;2023-11-21T09:02:45;45.20;;;27.17;;
80195;SDS011;69516;42.050;21.516;2023-11-21T09:05:12;48.42;;;30.52;;
80195;SDS011;69516;42.050;21.516;2023-11-21T09:07:39;52.53;;;29.90;;
80195;SDS011;69516;42.050;21.516;2023-11-21T09:10:07;50.60;;;29.92;;
80195;SDS011;69516;42.050;21.516;2023-11-21T09:12:37;53.05;;;30.80;;
80195;SDS011;69516;42.050;21.516;2023-11-21T09:15:04;55.00;;;29.88;;
80195;SDS011;69516;42.050;21.516;2023-11-21T09:17:30;53.40;;;26.48;;
80195;SDS011;69516;42.050;21.516;2023-11-21T09:19:56;47.45;;;27.05;;
80195;SDS011;69516;42.050;21.516;2023-11-21T09:22:23;47.78;;;26.98;;
80195;SDS011;69516;42.050;21.516;2023-11-21T09:24:54;50.28;;;26.27;;
80195;SDS011;69516;42.050;21.516;2023-11-21T09:27:22;48.55;;;25.95;;
80195;SDS011;69516;42.050;21.516;2023-11-21T09:29:50;49.33;;;26.15;;
80195;SDS011;69516;42.050;21.516;2023-11-21T09:32:18;51.05;;;29.05;;
80195;SDS011;69516;42.050;21.516;2023-11-21T09:34:46;49.83;;;27.15;;
80195;SDS011;69516;42.050;21.516;2023-11-21T09:37:12;47.63;;;26.35;;
80195;SDS011;69516;42.050;21.516;2023-11-21T09:39:39;49.22;;;27.00;;
80195;SDS011;69516;42.050;21.516;2023-11-21T09:42:12;47.75;;;25.92;;
80195;SDS011;69516;42.050;21.516;2023-11-21T09:45:03;48.30;;;27.58;;
80195;SDS011;69516;42.050;21.516;2023-11-21T09:47:29;50.08;;;26.52;;
80195;SDS011;69516;42.050;21.516;2023-11-21T09:49:56;53.05;;;28.50;;
80195;SDS011;69516;42.050;21.516;2023-11-21T09:52:26;48.03;;;27.55;;
80195;SDS011;69516;42.050;21.516;2023-11-21T09:54:52;46.80;;;26.42;;
80195;SDS011;69516;42.050;21.516;2023-11-21T09:57:19;53.10;;;29.70;;
80195;SDS011;69516;42.050;21.516;2023-11-21T09:59:47;54.03;;;28.95;;
80195;SDS011;69516;42.050;21.516;2023-11-21T10:04:43;54.10;;;29.88;;
80195;SDS011;69516;42.050;21.516;2023-11-21T10:07:10;54.25;;;31.88;;
80195;SDS011;69516;42.050;21.516;2023-11-21T10:09:37;59.03;;;34.75;;
80195;SDS011;69516;42.050;21.516;2023-11-21T10:12:04;58.42;;;30.48;;
80195;SDS011;69516;42.050;21.516;2023-11-21T10:14:33;53.58;;;31.17;;
80195;SDS011;69516;42.050;21.516;2023-11-21T10:17:00;54.35;;;30.83;;
80195;SDS011;69516;42.050;21.516;2023-11-21T10:19:26;57.17;;;30.15;;
80195;SDS011;69516;42.050;21.516;2023-11-21T10:21:54;59.08;;;31.48;;
80195;SDS011;69516;42.050;21.516;2023-11-21T10:24:22;57.00;;;31.80;;
80195;SDS011;69516;42.050;21.516;2023-11-21T10:26:49;55.45;;;31.35;;
80195;SDS011;69516;42.050;21.516;2023-11-21T10:29:16;61.97;;;30.95;;
80195;SDS011;69516;42.050;21.516;2023-11-21T10:31:43;64.32;;;32.75;;
80195;SDS011;69516;42.050;21.516;2023-11-21T10:36:40;60.70;;;30.40;;
80195;SDS011;69516;42.050;21.516;2023-11-21T10:39:06;52.42;;;28.17;;
80195;SDS011;69516;42.050;21.516;2023-11-21T10:41:33;58.08;;;30.48;;
80195;SDS011;69516;42.050;21.516;2023-11-21T10:44:00;53.92;;;29.85;;
80195;SDS011;69516;42.050;21.516;2023-11-21T10:46:29;58.05;;;30.23;;
80195;SDS011;69516;42.050;21.516;2023-11-21T10:48:55;55.60;;;28.67;;
80195;SDS011;69516;42.050;21.516;2023-11-21T10:51:22;50.03;;;27.17;;
80195;SDS011;69516;42.050;21.516;2023-11-21T10:53:51;49.75;;;27.85;;
80195;SDS011;69516;42.050;21.516;2023-11-21T10:56:18;55.53;;;32.17;;
80195;SDS011;69516;42.050;21.516;2023-11-21T10:58:47;63.72;;;32.95;;
80195;SDS011;69516;42.050;21.516;2023-11-21T11:01:14;56.70;;;29.42;;
80195;SDS011;69516;42.050;21.516;2023-11-21T11:03:43;54.70;;;30.48;;
80195;SDS011;69516;42.050;21.516;2023-11-21T11:06:10;57.75;;;29.67;;
80195;SDS011;69516;42.050;21.516;2023-11-21T11:08:37;54.55;;;26.70;;
80195;SDS011;69516;42.050;21.516;2023-11-21T11:11:07;55.88;;;29.38;;
80195;SDS011;69516;42.050;21.516;2023-11-21T11:13:35;49.85;;;27.60;;
80195;SDS011;69516;42.050;21.516;2023-11-21T11:16:02;47.72;;;26.25;;
80195;SDS011;69516;42.050;21.516;2023-11-21T11:18:32;44.67;;;25.02;;
80195;SDS011;69516;42.050;21.516;2023-11-21T11:21:06;48.35;;;25.80;;
80195;SDS011;69516;42.050;21.516;2023-11-21T11:29:50;57.47;;;29.00;;
80195;SDS011;69516;42.050;21.516;2023-11-21T11:34:23;68.93;;;31.77;;
80195;SDS011;69516;42.050;21.516;2023-11-21T11:39:27;68.30;;;31.90;;
80195;SDS011;69516;42.050;21.516;2023-11-21T11:41:57;64.50;;;32.10;;
80195;SDS011;69516;42.050;21.516;2023-11-21T11:44:59;55.63;;;29.73;;
80195;SDS011;69516;42.050;21.516;2023-11-21T11:50:00;60.50;;;30.63;;
80195;SDS011;69516;42.050;21.516;2023-11-21T11:52:35;64.18;;;30.63;;
80195;SDS011;69516;42.050;21.516;2023-11-21T11:55:05;56.40;;;31.33;;
80195;SDS011;69516;42.050;21.516;2023-11-21T11:57:32;60.92;;;31.92;;
80195;SDS011;69516;42.050;21.516;2023-11-21T12:00:16;57.92;;;30.58;;
80195;SDS011;69516;42.050;21.516;2023-11-21T12:02:45;58.75;;;30.00;;
80195;SDS011;69516;42.050;21.516;2023-11-21T12:05:13;62.80;;;30.27;;
80195;SDS011;69516;42.050;21.516;2023-11-21T12:10:11;63.10;;;33.05;;
80195;SDS011;69516;42.050;21.516;2023-11-21T12:12:37;63.28;;;31.67;;
80195;SDS011;69516;42.050;21.516;2023-11-21T12:15:04;61.80;;;31.17;;
80195;SDS011;69516;42.050;21.516;2023-11-21T12:17:30;62.78;;;32.83;;
80195;SDS011;69516;42.050;21.516;2023-11-21T12:20:03;54.42;;;30.38;;
80195;SDS011;69516;42.050;21.516;2023-11-21T12:22:30;58.55;;;29.05;;
80195;SDS011;69516;42.050;21.516;2023-11-21T12:24:56;56.72;;;29.25;;
80195;SDS011;69516;42.050;21.516;2023-11-21T12:27:22;52.40;;;28.15;;
80195;SDS011;69516;42.050;21.516;2023-11-21T12:29:48;59.65;;;29.45;;
80195;SDS011;69516;42.050;21.516;2023-11-21T12:32:14;62.33;;;30.02;;
80195;SDS011;69516;42.050;21.516;2023-11-21T12:34:43;56.40;;;28.58;;
80195;SDS011;69516;42.050;21.516;2023-11-21T12:37:09;56.03;;;29.90;;
80195;SDS011;69516;42.050;21.516;2023-11-21T12:39:35;55.53;;;28.73;;
80195;SDS011;69516;42.050;21.516;2023-11-21T12:42:01;55.28;;;28.15;;
80195;SDS011;69516;42.050;21.516;2023-11-21T12:44:28;56.30;;;29.88;;
80195;SDS011;69516;42.050;21.516;2023-11-21T12:46:54;56.75;;;29.98;;
80195;SDS011;69516;42.050;21.516;2023-11-21T12:49:20;54.08;;;28.65;;
80195;SDS011;69516;42.050;21.516;2023-11-21T12:51:47;54.60;;;29.50;;
80195;SDS011;69516;42.050;21.516;2023-11-21T12:54:13;52.85;;;29.27;;
80195;SDS011;69516;42.050;21.516;2023-11-21T12:56:40;52.38;;;27.77;;
80195;SDS011;69516;42.050;21.516;2023-11-21T12:59:06;58.75;;;29.70;;
80195;SDS011;69516;42.050;21.516;2023-11-21T13:01:36;57.20;;;30.20;;
80195;SDS011;69516;42.050;21.516;2023-11-21T13:04:04;57.60;;;30.33;;
80195;SDS011;69516;42.050;21.516;2023-11-21T13:06:35;57.28;;;31.23;;
80195;SDS011;69516;42.050;21.516;2023-11-21T13:09:09;62.63;;;33.75;;
80195;SDS011;69516;42.050;21.516;2023-11-21T13:11:36;61.28;;;32.15;;
80195;SDS011;69516;42.050;21.516;2023-11-21T13:14:02;58.13;;;30.67;;
80195;SDS011;69516;42.050;21.516;2023-11-21T13:16:29;64.20;;;31.38;;
80195;SDS011;69516;42.050;21.516;2023-11-21T13:18:56;67.80;;;33.47;;
80195;SDS011;69516;42.050;21.516;2023-11-21T13:21:24;69.75;;;32.47;;
80195;SDS011;69516;42.050;21.516;2023-11-21T13:23:50;61.28;;;33.17;;
80195;SDS011;69516;42.050;21.516;2023-11-21T13:26:18;63.35;;;32.83;;
80195;SDS011;69516;42.050;21.516;2023-11-21T13:28:47;64.15;;;31.85;;
80195;SDS011;69516;42.050;21.516;2023-11-21T13:31:13;67.22;;;34.58;;
80195;SDS011;69516;42.050;21.516;2023-11-21T13:34:02;66.00;;;34.95;;
80195;SDS011;69516;42.050;21.516;2023-11-21T13:36:33;71.15;;;34.80;;
80195;SDS011;69516;42.050;21.516;2023-11-21T13:39:00;61.45;;;32.08;;
80195;SDS011;69516;42.050;21.516;2023-11-21T13:41:33;59.72;;;29.23;;
80195;SDS011;69516;42.050;21.516;2023-11-21T13:43:59;54.97;;;28.70;;
80195;SDS011;69516;42.050;21.516;2023-11-21T13:46:40;58.28;;;28.52;;
80195;SDS011;69516;42.050;21.516;2023-11-21T13:49:07;63.45;;;30.65;;
80195;SDS011;69516;42.050;21.516;2023-11-21T13:51:36;57.33;;;28.83;;
80195;SDS011;69516;42.050;21.516;2023-11-21T13:54:09;57.78;;;29.52;;
80195;SDS011;69516;42.050;21.516;2023-11-21T13:56:36;64.28;;;31.92;;
80195;SDS011;69516;42.050;21.516;2023-11-21T13:59:02;64.93;;;31.92;;
80195;SDS011;69516;42.050;21.516;2023-11-21T14:01:47;59.03;;;28.65;;
80195;SDS011;69516;42.050;21.516;2023-11-21T14:04:37;54.08;;;27.40;;
80195;SDS011;69516;42.050;21.516;2023-11-21T14:07:19;55.72;;;25.05;;
80195;SDS011;69516;42.050;21.516;2023-11-21T14:09:52;63.58;;;27.00;;
80195;SDS011;69516;42.050;21.516;2023-11-21T14:12:18;49.95;;;25.67;;
80195;SDS011;69516;42.050;21.516;2023-11-21T14:14:44;47.58;;;25.08;;
80195;SDS011;69516;42.050;21.516;2023-11-21T14:17:12;53.42;;;26.17;;
80195;SDS011;69516;42.050;21.516;2023-11-21T14:19:38;49.92;;;25.77;;
80195;SDS011;69516;42.050;21.516;2023-11-21T14:22:08;50.10;;;24.63;;
80195;SDS011;69516;42.050;21.516;2023-11-21T14:24:35;51.42;;;25.23;;
80195;SDS011;69516;42.050;21.516;2023-11-21T14:27:01;53.67;;;28.15;;
80195;SDS011;69516;42.050;21.516;2023-11-21T14:29:28;52.20;;;26.50;;
80195;SDS011;69516;42.050;21.516;2023-11-21T14:31:56;64.47;;;29.63;;